Time;durP1;ratioP1;P1;durP2;ratioP2;P2;SDS_P1;SDS_P2;PMS_P1;PMS_P2;Temp;Humidity;BMP_temperature;BMP_pressure;BME280_temperature;BME280_humidity;BME280_pressure;Samples;Min_cycle;Max_cycle;Signal;HPM_P1;HPM_P2
2023/11/03 00:02:08;;;;;;;11.55;7.43;;;;;;;15.61;79.80;98229.09;4968441;28;97144;-77
2023/11/03 00:04:35;;;;;;;14.15;7.03;;;;;;;15.58;79.13;98221.41;4958594;28;98102;-80
2023/11/03 00:07:04;;;;;;;8.05;7.07;;;;;;;15.60;79.66;98216.78;4967246;28;98895;-78
2023/11/03 00:09:33;;;;;;;7.95;7.15;;;;;;;15.49;79.99;98207.94;4961371;28;97230;-78
2023/11/03 00:12:00;;;;;;;11.43;8.02;;;;;;;15.56;80.03;98207.41;4972179;28;96917;-78
2023/11/03 00:14:27;;;;;;;8.73;7.47;;;;;;;15.49;80.34;98207.94;4971348;28;98498;-78
2023/11/03 00:16:53;;;;;;;12.48;7.95;;;;;;;15.69;78.97;98216.72;4965111;28;98788;-78
2023/11/03 00:19:20;;;;;;;10.43;7.75;;;;;;;15.60;79.78;98214.09;4964686;28;97267;-78
2023/11/03 00:21:47;;;;;;;11.15;7.95;;;;;;;15.77;78.81;98208.00;4969741;28;97178;-78
2023/11/03 00:24:16;;;;;;;14.68;8.95;;;;;;;15.68;79.02;98212.41;4969078;28;99630;-78
2023/11/03 00:26:43;;;;;;;13.43;8.75;;;;;;;15.69;78.89;98197.22;4969398;28;99535;-79
2023/11/03 00:29:10;;;;;;;14.55;7.88;;;;;;;15.63;79.18;98203.16;4968954;28;99567;-79
2023/11/03 00:31:38;;;;;;;12.77;7.97;;;;;;;15.61;79.10;98205.16;4970716;28;97193;-79
2023/11/03 00:34:06;;;;;;;9.43;7.68;;;;;;;15.69;78.86;98223.84;4968764;28;100825;-78
2023/11/03 00:36:33;;;;;;;11.15;8.25;;;;;;;15.51;79.70;98248.56;4971779;28;98859;-79
2023/11/03 00:39:00;;;;;;;10.75;7.85;;;;;;;15.61;79.55;98259.22;4970128;28;96866;-80
2023/11/03 00:41:29;;;;;;;10.50;8.45;;;;;;;15.67;79.26;98277.28;4958805;28;96862;-78
2023/11/03 00:43:55;;;;;;;12.90;8.05;;;;;;;15.41;80.14;98273.53;4967617;28;101024;-79
2023/11/03 00:46:22;;;;;;;10.18;8.00;;;;;;;15.62;79.34;98271.53;4959464;28;101466;-78
2023/11/03 00:48:48;;;;;;;10.52;8.50;;;;;;;15.72;78.80;98266.19;4969020;28;96785;-79
2023/11/03 00:51:15;;;;;;;13.65;8.05;;;;;;;15.49;79.61;98268.34;4964167;28;96734;-78
2023/11/03 00:53:45;;;;;;;10.98;7.85;;;;;;;15.38;79.68;98260.50;4960860;28;99013;-79
2023/11/03 00:56:13;;;;;;;11.20;7.40;;;;;;;15.48;79.39;98248.88;4961566;28;100409;-78
2023/11/03 00:58:41;;;;;;;11.57;7.88;;;;;;;15.33;79.93;98229.03;4969583;28;96702;-77
2023/11/03 01:01:13;;;;;;;8.77;7.88;;;;;;;15.50;79.10;98193.66;4964910;28;97059;-77
2023/11/03 01:03:39;;;;;;;8.43;7.50;;;;;;;15.50;78.94;98198.97;4961793;28;101855;-78
2023/11/03 01:06:07;;;;;;;10.20;7.30;;;;;;;15.49;78.88;98213.25;4965551;28;99247;-77
2023/11/03 01:08:34;;;;;;;9.27;7.53;;;;;;;15.57;78.74;98228.53;4958710;28;96884;-76
2023/11/03 01:11:01;;;;;;;9.98;7.65;;;;;;;15.35;79.28;98237.72;4964455;28;97133;-78
2023/11/03 01:13:28;;;;;;;9.18;7.45;;;;;;;15.54;78.93;98252.81;4960994;28;99160;-78
2023/11/03 01:15:56;;;;;;;10.25;7.95;;;;;;;15.54;78.36;98261.63;4972773;28;99149;-78
2023/11/03 01:18:22;;;;;;;10.23;7.28;;;;;;;15.49;78.19;98263.84;4963468;28;97115;-77
2023/11/03 01:20:52;;;;;;;12.48;7.93;;;;;;;15.49;78.68;98255.84;4962917;28;97448;-78
2023/11/03 01:23:18;;;;;;;17.90;7.22;;;;;;;15.40;78.87;98251.41;4965667;28;99013;-77
2023/11/03 01:25:45;;;;;;;9.55;7.28;;;;;;;15.41;79.01;98245.13;4958227;28;101682;-78
2023/11/03 01:28:13;;;;;;;10.30;7.28;;;;;;;15.54;78.12;98237.69;4965552;28;96695;-78
2023/11/03 01:30:40;;;;;;;8.35;7.20;;;;;;;15.53;77.82;98235.16;4961223;28;98734;-78
2023/11/03 01:33:08;;;;;;;9.60;6.97;;;;;;;15.33;78.60;98239.66;4968484;28;98179;-77
2023/11/03 01:35:37;;;;;;;13.95;7.47;;;;;;;15.19;79.27;98241.94;4961836;28;101297;-77
2023/11/03 01:38:04;;;;;;;8.15;6.97;;;;;;;15.15;79.36;98236.94;4970463;28;96787;-78
2023/11/03 01:40:30;;;;;;;10.18;7.15;;;;;;;15.26;79.40;98235.91;4961590;28;96894;-78
2023/11/03 01:42:57;;;;;;;14.32;7.03;;;;;;;15.24;79.29;98232.53;4959461;28;99284;-81
2023/11/03 01:45:23;;;;;;;10.05;6.93;;;;;;;15.29;78.83;98232.97;4969772;28;97854;-82
2023/11/03 01:47:49;;;;;;;11.18;7.30;;;;;;;15.35;78.49;98227.06;4965447;28;98913;-81
2023/11/03 01:50:17;;;;;;;8.90;6.97;;;;;;;15.36;78.39;98202.13;4971314;28;96894;-78
2023/11/03 01:52:46;;;;;;;7.75;6.72;;;;;;;15.38;78.48;98212.63;4969875;28;101199;-78
2023/11/03 01:55:13;;;;;;;8.13;6.75;;;;;;;15.29;78.79;98214.34;4970476;28;101945;-78
2023/11/03 01:57:41;;;;;;;9.77;6.88;;;;;;;15.30;78.60;98218.66;4968781;28;100894;-79
2023/11/03 02:00:13;;;;;;;14.30;6.93;;;;;;;15.37;77.28;98217.09;4969279;28;97274;-79
2023/11/03 02:02:40;;;;;;;8.75;6.38;;;;;;;15.52;77.17;98205.03;4968256;28;97733;-79
2023/11/03 02:05:06;;;;;;;7.30;6.30;;;;;;;15.47;77.04;98185.97;4967115;28;97679;-79
2023/11/03 02:07:34;;;;;;;9.65;6.63;;;;;;;15.31;77.48;98187.56;4969627;28;97031;-79
2023/11/03 02:10:06;;;;;;;11.18;7.28;;;;;;;15.33;77.61;98182.94;4975943;28;97361;-79
2023/11/03 02:12:33;;;;;;;8.73;6.15;;;;;;;15.46;76.97;98180.81;4966672;28;99536;-79
2023/11/03 02:14:59;;;;;;;12.88;6.80;;;;;;;15.41;77.15;98178.59;4969156;28;98794;-79
2023/11/03 02:17:27;;;;;;;7.32;6.43;;;;;;;15.27;77.16;98183.53;4959811;28;97509;-79
2023/11/03 02:19:53;;;;;;;10.88;6.57;;;;;;;15.21;77.99;98195.59;4969979;28;97185;-79
2023/11/03 02:22:19;;;;;;;8.50;6.63;;;;;;;15.24;77.55;98192.63;4966419;28;99207;-79
2023/11/03 02:24:47;;;;;;;8.05;6.45;;;;;;;15.01;78.54;98186.84;4964308;28;99324;-79
2023/11/03 02:27:14;;;;;;;9.93;6.53;;;;;;;14.86;79.24;98180.28;4967785;28;97643;-79
2023/11/03 02:29:40;;;;;;;10.20;6.70;;;;;;;14.88;78.73;98185.47;4967142;28;97095;-81
2023/11/03 02:32:07;;;;;;;8.82;6.88;;;;;;;15.11;78.24;98182.31;4967115;28;98976;-80
2023/11/03 02:34:33;;;;;;;7.38;6.30;;;;;;;15.08;77.99;98164.00;4970040;28;100604;-81
2023/11/03 02:37:00;;;;;;;7.75;5.65;;;;;;;14.91;78.51;98145.28;4971937;28;96805;-80
2023/11/03 02:39:26;;;;;;;7.70;6.28;;;;;;;15.14;77.48;98138.66;4965090;28;96910;-81
2023/11/03 02:41:54;;;;;;;12.68;6.97;;;;;;;15.11;77.53;98134.44;4968602;28;100883;-80
2023/11/03 02:44:21;;;;;;;11.77;6.22;;;;;;;14.99;78.60;98140.94;4968277;28;99170;-80
2023/11/03 02:46:47;;;;;;;10.10;6.57;;;;;;;15.09;77.87;98143.56;4968929;28;99169;-79
2023/11/03 02:49:13;;;;;;;8.52;6.45;;;;;;;14.97;78.05;98150.03;4965135;28;96933;-78
2023/11/03 02:51:40;;;;;;;10.02;6.00;;;;;;;15.19;77.22;98167.47;4969322;28;98819;-79
2023/11/03 02:54:07;;;;;;;9.10;5.88;;;;;;;15.04;77.60;98170.59;4964066;28;101029;-78
2023/11/03 02:56:33;;;;;;;8.82;6.90;;;;;;;15.00;77.53;98179.00;4971264;28;96810;-80
2023/11/03 02:59:01;;;;;;;9.93;6.30;;;;;;;14.84;78.20;98181.41;4961402;28;96792;-78
2023/11/03 03:01:28;;;;;;;6.97;5.53;;;;;;;14.79;78.63;98173.03;4963594;28;102371;-80
2023/11/03 03:03:55;;;;;;;7.78;5.97;;;;;;;14.67;78.71;98170.53;4967408;28;98039;-81
2023/11/03 03:06:21;;;;;;;8.80;5.88;;;;;;;14.85;78.19;98180.44;4972842;28;97791;-80
2023/11/03 03:08:49;;;;;;;8.27;5.88;;;;;;;14.72;78.42;98181.56;4967000;28;98553;-81
2023/11/03 03:11:15;;;;;;;6.63;5.90;;;;;;;14.82;77.95;98167.44;4966499;28;97877;-80
2023/11/03 03:13:43;;;;;;;7.30;5.53;;;;;;;14.61;78.42;98163.13;4968314;28;101237;-80
2023/11/03 03:16:11;;;;;;;8.63;6.32;;;;;;;14.77;78.26;98156.41;4968701;28;96703;-79
2023/11/03 03:18:37;;;;;;;12.75;5.80;;;;;;;15.05;76.84;98164.28;4968099;28;96813;-79
2023/11/03 03:21:04;;;;;;;10.82;5.68;;;;;;;14.89;77.14;98171.19;4963984;28;99212;-79
2023/11/03 03:23:31;;;;;;;7.45;4.97;;;;;;;14.91;76.64;98171.88;4979034;28;101320;-79
2023/11/03 03:25:57;;;;;;;6.72;5.13;;;;;;;14.84;77.14;98176.09;4968997;28;96848;-77
2023/11/03 03:28:23;;;;;;;9.35;4.82;;;;;;;14.94;76.44;98177.75;4967533;28;97215;-76
2023/11/03 03:30:51;;;;;;;9.18;4.82;;;;;;;14.75;77.42;98178.66;4966590;28;98907;-77
2023/11/03 03:33:18;;;;;;;7.03;4.57;;;;;;;14.70;77.30;98182.72;4963069;28;98739;-76
2023/11/03 03:35:45;;;;;;;7.35;5.10;;;;;;;14.64;77.70;98178.78;4966514;28;100943;-77
2023/11/03 03:38:11;;;;;;;9.75;5.22;;;;;;;14.67;77.18;98190.97;4969938;28;97121;-77
2023/11/03 03:40:38;;;;;;;5.00;4.47;;;;;;;14.84;76.58;98189.38;4964965;28;98959;-79
2023/11/03 03:43:04;;;;;;;5.80;4.50;;;;;;;14.73;77.11;98193.03;4972213;28;98903;-78
2023/11/03 03:45:30;;;;;;;5.35;4.80;;;;;;;14.53;77.82;98184.25;4967996;28;97100;-78
2023/11/03 03:47:57;;;;;;;4.82;4.20;;;;;;;14.63;77.59;98182.44;4968087;28;97147;-79
2023/11/03 03:50:24;;;;;;;6.38;4.60;;;;;;;14.70;77.31;98183.53;4971038;28;99180;-78
2023/11/03 03:52:51;;;;;;;7.93;4.45;;;;;;;14.43;78.03;98170.16;4963612;28;97903;-78
2023/11/03 03:55:17;;;;;;;6.88;4.55;;;;;;;14.39;78.27;98174.03;4969127;28;97292;-79
2023/11/03 03:57:44;;;;;;;6.63;4.45;;;;;;;14.58;77.44;98176.69;4962760;28;96719;-78
2023/11/03 04:00:11;;;;;;;4.85;4.35;;;;;;;14.28;78.67;98174.16;4980018;28;99653;-79
2023/11/03 04:02:37;;;;;;;6.18;4.55;;;;;;;14.31;78.66;98177.38;4965528;28;99416;-79
2023/11/03 04:05:04;;;;;;;5.85;4.43;;;;;;;14.30;78.41;98170.41;4965249;28;98813;-78
2023/11/03 04:07:32;;;;;;;5.72;4.32;;;;;;;14.39;78.01;98168.72;4957015;28;97012;-79
2023/11/03 04:09:58;;;;;;;6.43;4.70;;;;;;;14.59;77.29;98159.78;4970919;28;101041;-79
2023/11/03 04:12:25;;;;;;;7.22;4.68;;;;;;;14.83;76.02;98163.81;4968251;28;97796;-78
2023/11/03 04:14:51;;;;;;;6.28;4.20;;;;;;;14.68;76.24;98158.94;4972377;28;97507;-79
2023/11/03 04:17:18;;;;;;;5.38;4.10;;;;;;;14.81;75.75;98161.28;4965580;28;97036;-79
2023/11/03 04:19:44;;;;;;;8.23;4.57;;;;;;;14.77;76.20;98155.41;4959304;28;99045;-79
2023/11/03 04:22:11;;;;;;;4.63;3.53;;;;;;;14.63;75.99;98152.38;4970633;28;98130;-79
2023/11/03 04:24:39;;;;;;;9.93;4.63;;;;;;;14.77;75.50;98156.41;4961772;28;96852;-79
2023/11/03 04:27:05;;;;;;;6.85;3.88;;;;;;;14.60;75.96;98169.44;4969297;28;96952;-78
2023/11/03 04:29:32;;;;;;;6.32;3.65;;;;;;;14.75;75.53;98169.84;4968705;28;99573;-79
2023/11/03 04:31:59;;;;;;;5.43;3.63;;;;;;;14.68;75.09;98174.03;4968293;28;98196;-79
2023/11/03 04:34:25;;;;;;;8.27;4.05;;;;;;;14.78;75.23;98180.16;4969889;28;96802;-79
2023/11/03 04:36:52;;;;;;;7.97;3.95;;;;;;;14.74;75.17;98176.97;4968966;28;97002;-79
2023/11/03 04:39:18;;;;;;;4.10;3.47;;;;;;;14.54;75.75;98183.28;4961654;28;100736;-78
2023/11/03 04:41:46;;;;;;;7.00;3.58;;;;;;;14.65;75.31;98175.16;4963608;28;98885;-78
2023/11/03 04:44:12;;;;;;;6.95;3.65;;;;;;;14.53;75.57;98172.78;4969410;28;96738;-79
2023/11/03 04:46:39;;;;;;;7.03;3.92;;;;;;;14.49;75.98;98168.75;4970101;28;96923;-81
2023/11/03 04:49:07;;;;;;;7.13;3.63;;;;;;;14.59;75.23;98162.44;4967503;28;102026;-81
2023/11/03 04:51:33;;;;;;;5.00;3.38;;;;;;;14.52;75.71;98163.13;4976025;28;99182;-81
2023/11/03 04:54:00;;;;;;;4.10;3.67;;;;;;;14.63;74.83;98161.19;4971263;28;96775;-81
2023/11/03 04:56:26;;;;;;;8.05;3.40;;;;;;;14.55;74.64;98161.03;4976800;28;97102;-81
2023/11/03 04:58:54;;;;;;;5.18;3.55;;;;;;;14.64;74.66;98159.34;4976564;28;101098;-79
2023/11/03 05:01:20;;;;;;;4.88;3.08;;;;;;;14.63;74.27;98163.00;4971160;28;99080;-78
2023/11/03 05:03:46;;;;;;;5.07;3.03;;;;;;;14.41;75.03;98160.63;4971072;28;97729;-79
2023/11/03 05:06:13;;;;;;;8.02;3.10;;;;;;;14.41;74.55;98150.00;4971100;28;96737;-79
2023/11/03 05:08:39;;;;;;;7.20;3.67;;;;;;;14.43;75.01;98159.53;4963580;28;99754;-78
2023/11/03 05:11:06;;;;;;;4.88;3.15;;;;;;;14.40;74.83;98170.41;4970444;28;98935;-79
2023/11/03 05:13:32;;;;;;;3.17;2.65;;;;;;;14.45;74.92;98173.47;4968695;28;96877;-81
2023/11/03 05:16:03;;;;;;;5.22;3.05;;;;;;;14.49;74.74;98169.59;4975407;28;97188;-78
2023/11/03 05:18:30;;;;;;;7.95;2.80;;;;;;;14.24;75.04;98170.94;4962662;28;100961;-78
2023/11/03 05:20:56;;;;;;;6.30;2.92;;;;;;;14.35;74.91;98165.50;4969487;28;99306;-78
2023/11/03 05:23:22;;;;;;;3.80;2.47;;;;;;;14.30;74.63;98169.56;4968979;28;98818;-78
2023/11/03 05:25:49;;;;;;;2.90;2.47;;;;;;;14.45;73.81;98172.66;4967282;28;97439;-78
2023/11/03 05:28:15;;;;;;;5.35;2.58;;;;;;;14.31;73.29;98165.91;4970410;28;99674;-78
2023/11/03 05:30:41;;;;;;;2.72;2.38;;;;;;;14.31;73.16;98171.22;4964824;28;102449;-78
2023/11/03 05:33:09;;;;;;;7.07;2.35;;;;;;;14.26;72.80;98171.66;4963509;28;96841;-79
2023/11/03 05:35:36;;;;;;;4.70;2.72;;;;;;;14.36;72.78;98167.19;4971714;28;97007;-84
2023/11/03 05:38:02;;;;;;;5.75;2.50;;;;;;;14.55;72.34;98182.31;4973591;28;99225;-84
2023/11/03 05:40:29;;;;;;;7.32;2.38;;;;;;;14.66;71.07;98184.81;4971118;28;98607;-82
2023/11/03 05:42:55;;;;;;;4.47;2.10;;;;;;;14.57;71.09;98198.94;4976891;28;97325;-84
2023/11/03 05:45:21;;;;;;;2.95;2.10;;;;;;;14.56;70.74;98197.28;4969465;28;97052;-82
2023/11/03 05:47:48;;;;;;;4.22;2.10;;;;;;;14.62;70.48;98195.88;4969701;28;99334;-82
2023/11/03 05:50:16;;;;;;;6.40;2.30;;;;;;;14.40;70.82;98190.84;4964077;28;98001;-82
2023/11/03 05:52:42;;;;;;;2.70;2.00;;;;;;;14.40;71.12;98194.31;4975644;28;96726;-82
2023/11/03 05:55:11;;;;;;;7.43;2.65;;;;;;;14.43;71.13;98201.19;4967989;28;96859;-82
2023/11/03 05:57:37;;;;;;;6.57;2.30;;;;;;;14.11;71.54;98202.22;4966489;28;98928;-81
2023/11/03 06:00:08;;;;;;;11.55;3.03;;;;;;;13.96;72.58;98198.31;4965567;28;99453;-81
2023/11/03 06:02:36;;;;;;;4.05;2.60;;;;;;;13.94;72.89;98198.44;4967835;28;96907;-81
2023/11/03 06:05:03;;;;;;;4.28;2.15;;;;;;;13.91;73.08;98190.75;4967186;28;96913;-81
2023/11/03 06:07:31;;;;;;;9.63;2.35;;;;;;;13.89;72.76;98175.94;4969399;28;99073;-81
2023/11/03 06:09:57;;;;;;;4.40;2.00;;;;;;;13.91;73.13;98169.50;4962079;28;98053;-80
2023/11/03 06:12:24;;;;;;;3.45;2.40;;;;;;;13.86;72.62;98162.94;4961667;28;96691;-80
2023/11/03 06:14:50;;;;;;;7.15;2.10;;;;;;;13.82;72.42;98164.19;4963092;28;96955;-78
2023/11/03 06:17:17;;;;;;;7.30;2.10;;;;;;;13.89;71.97;98176.78;4970426;28;98950;-79
2023/11/03 06:19:43;;;;;;;8.55;2.20;;;;;;;13.91;71.23;98190.75;4970626;28;99532;-79
2023/11/03 06:22:10;;;;;;;4.07;2.08;;;;;;;13.98;71.51;98217.59;4968044;28;97126;-82
2023/11/03 06:24:37;;;;;;;3.85;1.95;;;;;;;14.00;70.34;98238.69;4971753;28;96818;-81
2023/11/03 06:27:04;;;;;;;9.75;2.72;;;;;;;14.09;70.08;98252.00;4972268;28;102110;-78
2023/11/03 06:29:32;;;;;;;9.35;2.60;;;;;;;14.01;69.76;98264.28;4968504;28;99475;-78
2023/11/03 06:31:59;;;;;;;7.90;1.98;;;;;;;14.03;69.54;98273.78;4966266;28;96891;-77
2023/11/03 06:34:26;;;;;;;6.53;2.28;;;;;;;13.95;69.15;98277.13;4968332;28;96798;-79
2023/11/03 06:36:52;;;;;;;9.38;1.98;;;;;;;14.12;68.06;98290.72;4964828;28;99017;-79
2023/11/03 06:39:20;;;;;;;6.78;1.80;;;;;;;13.96;67.37;98312.47;4962162;28;98770;-81
2023/11/03 06:41:48;;;;;;;5.20;1.05;;;;;;;13.92;67.14;98311.88;4976472;28;96849;-82
2023/11/03 06:44:14;;;;;;;5.90;1.58;;;;;;;13.74;67.65;98307.34;4974003;28;96864;-77
2023/11/03 06:46:41;;;;;;;9.07;1.60;;;;;;;13.84;68.47;98300.28;4961063;28;99387;-77
2023/11/03 06:49:07;;;;;;;7.93;1.42;;;;;;;13.77;68.41;98299.13;4969578;28;99290;-78
2023/11/03 06:51:34;;;;;;;10.27;1.60;;;;;;;14.01;67.50;98290.81;4966645;28;96858;-79
2023/11/03 06:54:00;;;;;;;8.60;1.52;;;;;;;13.92;67.34;98284.50;4960775;28;98012;-80
2023/11/03 06:56:27;;;;;;;3.15;1.50;;;;;;;14.15;66.44;98274.50;4968889;28;98983;-80
2023/11/03 06:58:54;;;;;;;5.35;2.38;;;;;;;14.10;65.98;98263.47;4965995;28;98782;-80
2023/11/03 07:01:21;;;;;;;4.47;1.40;;;;;;;14.10;66.08;98263.47;4961742;28;98493;-78
2023/11/03 07:03:47;;;;;;;8.60;1.40;;;;;;;14.19;64.87;98273.25;4961885;28;96880;-78
2023/11/03 07:06:14;;;;;;;11.85;1.45;;;;;;;14.25;64.66;98275.38;4965351;28;99509;-78
2023/11/03 07:08:40;;;;;;;8.07;1.50;;;;;;;14.12;64.44;98282.75;4960869;28;99300;-77
2023/11/03 07:11:07;;;;;;;8.27;1.75;;;;;;;14.30;63.73;98294.41;4971942;28;96795;-77
2023/11/03 07:13:33;;;;;;;5.00;1.27;;;;;;;14.27;63.80;98281.38;4968010;28;97927;-76
2023/11/03 07:16:04;;;;;;;7.25;1.48;;;;;;;14.37;63.79;98271.63;4973651;28;99494;-77
2023/11/03 07:18:30;;;;;;;6.88;1.48;;;;;;;14.46;62.02;98268.16;4971306;28;98282;-76
2023/11/03 07:20:57;;;;;;;8.57;1.65;;;;;;;14.53;62.52;98263.97;4974417;28;97266;-77
2023/11/03 07:23:23;;;;;;;5.30;1.20;;;;;;;14.44;62.41;98266.63;4973950;28;96918;-77
2023/11/03 07:25:50;;;;;;;4.68;1.40;;;;;;;14.53;62.40;98281.72;4966197;28;98274;-78
2023/11/03 07:28:17;;;;;;;4.20;1.00;;;;;;;14.58;61.36;98290.13;4973849;28;98818;-79
2023/11/03 07:30:44;;;;;;;6.22;1.42;;;;;;;14.50;61.70;98288.19;4972585;28;96950;-79
2023/11/03 07:33:12;;;;;;;10.52;1.17;;;;;;;14.43;62.16;98288.88;4967339;28;96917;-78
2023/11/03 07:35:38;;;;;;;10.02;1.55;;;;;;;14.78;61.40;98281.19;4972615;28;101101;-78
2023/11/03 07:38:05;;;;;;;10.52;2.47;;;;;;;14.66;61.71;98271.66;4962350;28;98771;-79
2023/11/03 07:40:31;;;;;;;7.07;1.23;;;;;;;14.60;61.09;98261.59;4974337;28;97473;-78
2023/11/03 07:42:58;;;;;;;5.53;1.40;;;;;;;14.53;60.98;98269.28;4974614;28;96755;-79
2023/11/03 07:45:24;;;;;;;7.32;2.05;;;;;;;14.56;61.24;98269.03;4973516;28;98886;-78
2023/11/03 07:47:51;;;;;;;10.02;1.83;;;;;;;14.63;60.10;98278.13;4970814;28;101007;-78
2023/11/03 07:50:19;;;;;;;6.93;2.00;;;;;;;14.57;60.10;98288.47;4973204;28;96762;-78
2023/11/03 07:52:46;;;;;;;14.85;2.05;;;;;;;14.63;60.04;98298.53;4976260;28;96929;-80
2023/11/03 07:55:15;;;;;;;6.60;1.58;;;;;;;14.45;60.25;98306.34;4967323;28;99017;-79
2023/11/03 07:57:42;;;;;;;9.45;1.33;;;;;;;14.35;60.74;98313.44;4973281;28;98817;-78
2023/11/03 08:00:10;;;;;;;7.70;1.35;;;;;;;14.37;60.70;98322.09;4973091;28;96750;-80
2023/11/03 08:02:37;;;;;;;6.18;1.38;;;;;;;14.60;59.98;98326.22;4971242;28;97001;-80
2023/11/03 08:05:06;;;;;;;8.82;2.05;;;;;;;14.51;58.78;98331.50;4967298;28;99193;-79
2023/11/03 08:07:34;;;;;;;6.95;1.42;;;;;;;14.68;59.58;98339.66;4968348;28;101837;-78
2023/11/03 08:10:01;;;;;;;7.15;1.75;;;;;;;14.77;59.27;98326.53;4973189;28;96804;-77
2023/11/03 08:12:27;;;;;;;9.77;1.73;;;;;;;14.78;58.72;98337.00;4973154;28;96821;-77
2023/11/03 08:14:55;;;;;;;10.10;1.65;;;;;;;14.74;58.71;98344.44;4965468;28;98876;-76
2023/11/03 08:17:22;;;;;;;13.30;2.08;;;;;;;15.00;58.93;98339.41;4970155;28;101607;-76
2023/11/03 08:19:50;;;;;;;5.53;2.15;;;;;;;14.84;58.12;98355.06;4970790;28;96705;-77
2023/11/03 08:22:16;;;;;;;4.10;1.42;;;;;;;15.12;57.69;98351.56;4972102;28;97239;-77
2023/11/03 08:24:44;;;;;;;6.93;2.30;;;;;;;15.20;57.87;98358.00;4968316;28;98712;-76
2023/11/03 08:27:12;;;;;;;4.78;1.33;;;;;;;15.21;57.55;98355.22;4972185;28;101140;-76
2023/11/03 08:29:39;;;;;;;4.03;1.33;;;;;;;15.14;57.10;98354.94;4972193;28;96890;-76
2023/11/03 08:32:07;;;;;;;10.13;2.05;;;;;;;15.12;57.72;98377.31;4971174;28;97388;-76
2023/11/03 08:34:34;;;;;;;9.60;1.55;;;;;;;15.13;57.41;98382.50;4964037;28;101461;-75
2023/11/03 08:37:00;;;;;;;10.15;1.70;;;;;;;15.07;58.05;98379.56;4971440;28;98848;-75
2023/11/03 08:39:27;;;;;;;7.78;2.00;;;;;;;15.20;58.02;98372.16;4970754;28;97513;-76
2023/11/03 08:41:54;;;;;;;5.32;1.40;;;;;;;14.98;57.64;98364.44;4970724;28;96857;-78
2023/11/03 08:44:22;;;;;;;7.22;1.50;;;;;;;15.02;58.86;98363.19;4967486;28;99088;-77
2023/11/03 08:46:49;;;;;;;5.78;1.23;;;;;;;15.10;57.84;98342.88;4970342;28;99227;-78
2023/11/03 08:49:16;;;;;;;6.32;1.40;;;;;;;15.39;56.68;98348.19;4966060;28;99347;-77
2023/11/03 08:51:42;;;;;;;8.38;1.92;;;;;;;15.58;56.01;98343.84;4969585;28;96931;-76
2023/11/03 08:54:10;;;;;;;7.85;1.30;;;;;;;15.73;55.24;98342.41;4970851;28;99864;-77
2023/11/03 08:56:37;;;;;;;7.03;1.50;;;;;;;15.75;54.74;98332.47;4970301;28;98922;-77
2023/11/03 08:59:05;;;;;;;7.75;1.50;;;;;;;15.82;55.04;98330.84;4967831;28;100767;-77
2023/11/03 09:01:33;;;;;;;11.07;2.00;;;;;;;15.61;54.69;98312.47;4968077;28;96924;-76
2023/11/03 09:04:01;;;;;;;6.72;1.48;;;;;;;15.93;54.15;98325.38;4962369;28;99383;-77
2023/11/03 09:06:28;;;;;;;10.43;2.55;;;;;;;16.04;54.72;98327.84;4960460;28;100043;-76
2023/11/03 09:08:54;;;;;;;5.35;1.50;;;;;;;16.10;54.11;98348.56;4971074;28;97133;-75
2023/11/03 09:11:20;;;;;;;6.20;1.55;;;;;;;15.89;53.64;98350.59;4971163;28;97213;-78
2023/11/03 09:13:51;;;;;;;8.57;1.40;;;;;;;15.81;53.57;98347.84;4971339;28;98799;-76
2023/11/03 09:16:20;;;;;;;11.05;1.80;;;;;;;15.92;53.01;98353.81;4967362;28;98847;-76
2023/11/03 09:18:46;;;;;;;9.23;1.63;;;;;;;15.75;53.24;98359.09;4972421;28;97330;-77
2023/11/03 09:21:14;;;;;;;8.43;1.95;;;;;;;16.07;53.38;98356.88;4965657;28;97982;-76
2023/11/03 09:23:41;;;;;;;6.78;1.17;;;;;;;15.74;54.23;98360.06;4970615;28;100258;-76
2023/11/03 09:26:07;;;;;;;4.85;1.13;;;;;;;15.84;53.25;98352.88;4970220;28;98782;-77
2023/11/03 09:28:34;;;;;;;10.45;1.88;;;;;;;15.70;53.77;98359.50;4969087;28;96810;-76
2023/11/03 09:31:01;;;;;;;4.93;1.23;;;;;;;15.94;52.64;98359.84;4966443;28;97225;-77
2023/11/03 09:33:29;;;;;;;8.68;1.63;;;;;;;16.10;53.04;98361.03;4970600;28;98992;-75
2023/11/03 09:35:55;;;;;;;5.88;2.08;;;;;;;16.23;52.07;98357.06;4967695;28;99025;-77
2023/11/03 09:38:21;;;;;;;8.70;2.88;;;;;;;16.12;52.94;98359.91;4966353;28;97354;-76
2023/11/03 09:40:48;;;;;;;9.80;1.67;;;;;;;16.19;53.05;98370.84;4968055;28;97235;-77
2023/11/03 09:43:14;;;;;;;9.48;1.92;;;;;;;16.09;52.44;98370.00;4970359;28;99140;-77
2023/11/03 09:45:43;;;;;;;12.43;1.85;;;;;;;16.16;51.99;98355.97;4968288;28;98873;-76
2023/11/03 09:48:11;;;;;;;8.25;1.65;;;;;;;15.94;52.52;98343.03;4964439;28;97221;-77
2023/11/03 09:50:40;;;;;;;9.88;1.98;;;;;;;16.15;52.32;98353.44;4969619;28;97218;-76
2023/11/03 09:53:11;;;;;;;15.10;2.72;;;;;;;16.06;52.04;98349.84;4967341;28;98937;-76
2023/11/03 09:55:38;;;;;;;7.80;1.40;;;;;;;16.17;52.29;98351.47;4967263;28;99066;-76
2023/11/03 09:58:06;;;;;;;6.05;1.17;;;;;;;16.29;52.04;98353.78;4966867;28;97580;-76
2023/11/03 10:00:33;;;;;;;6.35;1.20;;;;;;;16.10;52.42;98355.72;4969133;28;97059;-77
2023/11/03 10:02:59;;;;;;;5.40;2.13;;;;;;;16.03;52.36;98357.28;4969227;28;98875;-77
2023/11/03 10:05:29;;;;;;;8.80;1.40;;;;;;;16.23;51.63;98349.06;4972415;28;99112;-76
2023/11/03 10:08:01;;;;;;;5.93;1.20;;;;;;;16.30;51.31;98341.31;4966878;28;97456;-76
2023/11/03 10:10:29;;;;;;;5.72;1.30;;;;;;;16.15;52.04;98332.97;4970160;28;96754;-77
2023/11/03 10:12:57;;;;;;;5.28;1.30;;;;;;;16.15;51.62;98330.31;4966658;28;98374;-77
2023/11/03 10:15:24;;;;;;;7.25;1.40;;;;;;;16.03;52.12;98331.47;4961903;28;98841;-76
2023/11/03 10:17:51;;;;;;;8.38;1.42;;;;;;;16.15;51.87;98330.31;4968049;28;97405;-77
2023/11/03 10:20:20;;;;;;;9.80;1.70;;;;;;;16.23;52.19;98330.41;4968646;28;97270;-76
2023/11/03 10:22:50;;;;;;;8.93;1.33;;;;;;;16.11;52.13;98330.75;4969507;28;98975;-76
2023/11/03 10:25:19;;;;;;;7.90;1.77;;;;;;;16.30;52.03;98326.16;4968156;28;98024;-78
2023/11/03 10:27:47;;;;;;;4.18;1.38;;;;;;;16.33;51.81;98323.22;4969282;28;96882;-75
2023/11/03 10:30:15;;;;;;;3.75;1.10;;;;;;;16.30;51.32;98322.66;4969173;28;97156;-76
2023/11/03 10:32:43;;;;;;;7.40;1.33;;;;;;;16.27;51.42;98329.16;4965729;28;99788;-77
2023/11/03 10:35:12;;;;;;;7.90;1.80;;;;;;;16.20;51.94;98333.38;4968680;28;98771;-77
2023/11/03 10:37:40;;;;;;;8.23;1.63;;;;;;;16.09;51.69;98346.03;4965128;28;96816;-77
2023/11/03 10:40:10;;;;;;;8.10;1.27;;;;;;;16.11;52.05;98352.91;4968957;28;98435;-77
2023/11/03 10:42:40;;;;;;;7.22;1.33;;;;;;;16.02;51.78;98356.44;4969018;28;98468;-77
2023/11/03 10:45:08;;;;;;;9.43;1.70;;;;;;;16.19;51.34;98353.03;4968117;28;99325;-77
2023/11/03 10:47:48;;;;;;;5.90;1.52;;;;;;;16.26;51.54;98367.44;4973304;28;98160;-76
2023/11/03 10:50:16;;;;;;;8.75;1.70;;;;;;;16.27;51.15;98361.13;4968203;28;96873;-79
2023/11/03 10:52:50;;;;;;;6.28;1.40;;;;;;;16.26;51.10;98355.94;4970870;28;98162;-76
2023/11/03 10:55:25;;;;;;;7.57;1.33;;;;;;;16.16;51.41;98353.31;4971160;28;99476;-75
2023/11/03 10:57:53;;;;;;;11.85;1.77;;;;;;;16.08;51.60;98357.72;4972452;28;96805;-75
2023/11/03 11:00:26;;;;;;;10.18;1.50;;;;;;;16.35;51.53;98355.88;4971560;28;96878;-76
2023/11/03 11:02:59;;;;;;;10.48;1.73;;;;;;;16.24;50.58;98361.41;4969087;28;98908;-75
2023/11/03 11:05:35;;;;;;;7.00;1.35;;;;;;;16.26;51.56;98363.94;4968014;28;98817;-75
2023/11/03 11:08:04;;;;;;;7.15;2.20;;;;;;;16.39;50.20;98358.25;4972374;28;98208;-77
2023/11/03 11:10:39;;;;;;;10.95;1.73;;;;;;;16.30;49.87;98352.81;4970621;28;96803;-76
2023/11/03 11:13:15;;;;;;;5.65;1.40;;;;;;;16.30;50.17;98358.16;4971695;28;99534;-76
2023/11/03 11:15:44;;;;;;;7.05;1.00;;;;;;;16.32;49.71;98358.00;4967535;28;99145;-76
2023/11/03 11:18:15;;;;;;;5.22;1.17;;;;;;;16.48;50.08;98354.66;4971955;28;97279;-77
2023/11/03 11:20:50;;;;;;;7.88;1.20;;;;;;;16.55;49.09;98361.09;4969916;28;97739;-77
2023/11/03 11:23:18;;;;;;;9.98;1.60;;;;;;;16.32;49.50;98350.84;4970498;28;100676;-77
2023/11/03 11:25:45;;;;;;;9.50;1.38;;;;;;;16.71;48.56;98346.16;4968943;28;99106;-76
2023/11/03 11:28:37;;;;;;;9.57;1.40;;;;;;;16.45;49.46;98347.00;4969471;28;97231;-76
2023/11/03 11:31:43;;;;;;;8.77;1.55;;;;;;;16.59;49.57;98346.50;4970602;28;97213;-76
2023/11/03 11:34:12;;;;;;;5.53;1.08;;;;;;;16.50;49.56;98350.03;4970341;28;99175;-76